ZBAA

Beijing Capital International Airport

Beijing, China
TAF ZBAA 251520Z 2518/2618 36004MPS CAVOK TX26/2607Z TN11/2521Z
Issued Valid From Valid To
Apr-25 @ 15:20 UTC
(3 hours ago)
Apr-25 @ 18:00 UTC
(13 minutes ago)
Apr-26 @ 18:00 UTC
(in 24 hours)
Apr-25 @ 18:00 to Apr-26 @ 18:00
TAF ZBAA 251520Z 2518/2618 36004MPS CAVOK TX26/2607Z TN11/2521Z
Wind Visibility Clouds
360° at 8 knots 10,000+ meters
  • No significant clouds
TAF ZBAA 251520Z 2518/2618 36004MPS CAVOK TX26/2607Z TN11/2521Z
Issued Apr-25 @ 15:20 UTC
(3 hours ago)
Valid From Apr-25 @ 18:00 UTC
(13 minutes ago)
Valid To Apr-26 @ 18:00 UTC
(in 24 hours)
Apr-25 @ 18:00 - Apr-26 @ 18:00
Wind Visibility
360° at 8 knots 10,000+ meters
Clouds
  • No significant clouds